createdAt,value
2019-04-06T00:00:36.424Z,26.20
2019-04-06T00:01:36.455Z,27.30
2019-04-06T00:02:36.405Z,27.80
2019-04-06T00:03:36.398Z,26.90
2019-04-06T00:04:36.435Z,26.60
2019-04-06T00:05:36.371Z,27.60
2019-04-06T00:06:36.396Z,27.00
2019-04-06T00:07:36.359Z,26.10
2019-04-06T00:08:36.341Z,27.20
2019-04-06T00:09:36.361Z,27.00
2019-04-06T00:10:36.336Z,26.70
2019-04-06T00:11:36.312Z,27.20
2019-04-06T00:12:36.292Z,26.70
2019-04-06T00:13:36.283Z,26.60
2019-04-06T00:14:36.302Z,26.80
2019-04-06T00:15:36.264Z,27.30
2019-04-06T00:16:36.266Z,26.70
2019-04-06T00:17:36.251Z,27.20
2019-04-06T00:18:36.237Z,26.70
2019-04-06T00:19:36.260Z,27.00
2019-04-06T00:20:36.211Z,26.90
2019-04-06T00:21:36.205Z,25.60
2019-04-06T00:22:36.199Z,27.30
2019-04-06T00:23:36.179Z,26.80
2019-04-06T00:24:36.210Z,26.30
2019-04-06T00:25:44.267Z,26.30
2019-04-06T00:26:37.147Z,26.90
2019-04-06T00:27:36.926Z,26.90
2019-04-06T00:28:36.123Z,24.70
2019-04-06T00:29:36.152Z,25.80
2019-04-06T00:30:36.128Z,26.00
2019-04-06T00:31:36.123Z,25.80
2019-04-06T00:32:36.072Z,25.50
2019-04-06T00:33:36.092Z,25.70
2019-04-06T00:34:36.061Z,25.20
2019-04-06T00:35:36.044Z,26.30
2019-04-06T00:36:36.086Z,26.40
2019-04-06T00:37:36.026Z,25.80
2019-04-06T00:38:36.011Z,25.60
2019-04-06T00:39:36.002Z,26.00
2019-04-06T00:40:36.019Z,25.50
2019-04-06T00:41:35.981Z,27.60
2019-04-06T00:42:35.962Z,27.50
2019-04-06T00:43:35.962Z,26.90
2019-04-06T00:44:35.942Z,25.60
2019-04-06T00:45:35.984Z,25.30
2019-04-06T00:46:35.920Z,26.10
2019-04-06T00:47:35.966Z,25.70
2019-04-06T00:48:35.897Z,26.00
2019-04-06T00:49:35.901Z,26.00
2019-04-06T00:50:35.882Z,26.20
2019-04-06T00:51:35.881Z,26.10
2019-04-06T00:52:35.896Z,25.60
2019-04-06T00:53:35.851Z,27.00
2019-04-06T00:54:35.830Z,27.00
2019-04-06T00:55:35.850Z,26.70
2019-04-06T00:56:35.810Z,26.50
2019-04-06T00:57:35.801Z,27.40
2019-04-06T00:58:35.820Z,27.20
2019-04-06T00:59:35.778Z,26.20
2019-04-06T01:00:35.770Z,27.50
2019-04-06T01:01:35.760Z,27.10
2019-04-06T01:02:35.749Z,25.30
2019-04-06T01:03:35.762Z,25.30
2019-04-06T01:04:35.730Z,26.90
2019-04-06T01:05:35.733Z,26.20
2019-04-06T01:06:35.739Z,26.70
2019-04-06T01:07:35.728Z,27.20
2019-04-06T01:08:35.779Z,27.10
2019-04-06T01:09:35.675Z,27.30
2019-04-06T01:10:35.670Z,27.30
2019-04-06T01:11:35.650Z,25.30
2019-04-06T01:12:35.648Z,26.90
2019-04-06T01:13:35.660Z,26.90
2019-04-06T01:14:35.649Z,26.90
2019-04-06T01:15:35.655Z,27.10
2019-04-06T01:16:35.608Z,26.70
2019-04-06T01:17:35.611Z,26.60
2019-04-06T01:18:35.588Z,26.40
2019-04-06T01:19:35.559Z,27.00
2019-04-06T01:20:35.598Z,27.70
2019-04-06T01:21:35.541Z,26.50
2019-04-06T01:22:35.559Z,26.30
2019-04-06T01:23:35.511Z,26.40
2019-04-06T01:24:35.512Z,27.00
2019-04-06T01:25:35.492Z,26.80
2019-04-06T01:26:35.479Z,27.40
2019-04-06T01:27:35.513Z,26.40
2019-04-06T01:28:35.468Z,26.50
2019-04-06T01:29:35.450Z,25.70
2019-04-06T01:30:35.468Z,26.80
2019-04-06T01:31:35.426Z,26.10
2019-04-06T01:32:35.428Z,26.60
2019-04-06T01:33:35.411Z,25.40
2019-04-06T01:34:35.430Z,26.20
2019-04-06T01:35:35.389Z,26.40
2019-04-06T01:36:35.369Z,26.60
2019-04-06T01:37:35.371Z,25.80
2019-04-06T01:38:35.350Z,26.20
2019-04-06T01:39:35.379Z,25.90
2019-04-06T01:40:35.328Z,27.00
2019-04-06T01:41:35.320Z,26.10
2019-04-06T01:42:35.312Z,26.00
2019-04-06T01:43:35.345Z,26.50
2019-04-06T01:44:35.348Z,27.00
2019-04-06T01:45:35.283Z,26.80
2019-04-06T01:46:35.265Z,26.40
2019-04-06T01:47:35.287Z,26.40
2019-04-06T01:48:35.343Z,25.90
2019-04-06T01:49:35.228Z,26.00
2019-04-06T01:50:35.241Z,26.80
2019-04-06T01:51:35.210Z,25.80
2019-04-06T01:52:35.199Z,26.80
2019-04-06T01:53:35.213Z,28.00
2019-04-06T01:54:35.188Z,27.10
2019-04-06T01:55:35.289Z,25.10
2019-04-06T01:56:35.187Z,25.90
2019-04-06T01:57:35.190Z,25.90
2019-04-06T01:58:35.182Z,26.50
2019-04-06T01:59:35.127Z,26.50
2019-04-06T02:00:35.158Z,26.00
2019-04-06T02:01:35.137Z,27.00
2019-04-06T02:02:35.088Z,26.30
2019-04-06T02:03:35.086Z,26.60
2019-04-06T02:04:35.090Z,26.30
2019-04-06T02:05:35.097Z,25.60
2019-04-06T02:06:35.588Z,26.10
2019-04-06T02:07:35.037Z,25.40
2019-04-06T02:08:35.035Z,27.10
2019-04-06T02:09:35.057Z,27.40
2019-04-06T02:10:35.063Z,25.60
2019-04-06T02:11:35.086Z,26.40
2019-04-06T02:12:34.976Z,27.00
2019-04-06T02:13:34.996Z,26.70
2019-04-06T02:14:34.966Z,26.20
2019-04-06T02:15:34.961Z,25.70
2019-04-06T02:16:34.976Z,25.70
2019-04-06T02:17:34.933Z,25.00
2019-04-06T02:18:34.947Z,26.20
2019-04-06T02:19:34.907Z,26.60
2019-04-06T02:20:34.887Z,27.20
2019-04-06T02:21:34.886Z,27.20
2019-04-06T02:22:34.877Z,26.00
2019-04-06T02:23:34.886Z,25.80
2019-04-06T02:24:34.856Z,26.90
2019-04-06T02:25:34.836Z,25.50
2019-04-06T02:26:34.846Z,25.80
2019-04-06T02:27:34.856Z,26.00
2019-04-06T02:28:34.806Z,26.60
2019-04-06T02:29:34.801Z,26.00
2019-04-06T02:30:34.819Z,25.20
2019-04-06T02:31:34.785Z,26.80
2019-04-06T02:32:34.776Z,26.40
2019-04-06T02:33:34.757Z,26.90
2019-04-06T02:34:34.843Z,26.20
2019-04-06T02:35:34.798Z,26.70
2019-04-06T02:36:34.716Z,26.80
2019-04-06T02:37:34.705Z,27.10
2019-04-06T02:38:34.704Z,26.00
2019-04-06T02:39:34.695Z,27.20
2019-04-06T02:40:34.719Z,27.00
2019-04-06T02:41:34.667Z,26.70
2019-04-06T02:42:34.657Z,26.20
2019-04-06T02:43:34.647Z,27.20
2019-04-06T02:44:34.714Z,27.20
2019-04-06T02:45:34.741Z,27.20
2019-04-06T02:46:34.677Z,26.50
2019-04-06T02:47:34.598Z,25.20
2019-04-06T02:48:34.762Z,26.70
2019-04-06T02:49:34.606Z,26.70
2019-04-06T02:50:34.568Z,26.40
2019-04-06T02:51:34.561Z,26.80
2019-04-06T02:52:34.687Z,27.10
2019-04-06T02:53:34.557Z,26.20
2019-04-06T02:54:34.517Z,27.30
2019-04-06T02:55:34.538Z,26.00
2019-04-06T02:56:45.590Z,27.10
2019-04-06T02:57:35.549Z,26.50
2019-04-06T02:58:34.625Z,27.60
2019-04-06T02:59:34.468Z,26.70
2019-04-06T03:00:34.454Z,27.20
2019-04-06T03:01:34.444Z,27.40
2019-04-06T03:02:34.444Z,27.30
2019-04-06T03:03:34.525Z,26.70
2019-04-06T03:04:34.474Z,26.90
2019-04-06T03:05:34.402Z,27.70
2019-04-06T03:06:34.386Z,27.80
2019-04-06T03:07:34.383Z,28.30
2019-04-06T03:08:34.421Z,27.10
2019-04-06T03:09:34.398Z,28.90
2019-04-06T03:10:34.466Z,26.70
2019-04-06T03:11:34.330Z,27.10
2019-04-06T03:12:34.323Z,28.10
2019-04-06T03:13:34.494Z,26.30
2019-04-06T03:14:34.332Z,26.70
2019-04-06T03:15:34.296Z,27.60
2019-04-06T03:16:34.284Z,27.30
2019-04-06T03:17:34.351Z,27.20
2019-04-06T03:18:34.458Z,27.30
2019-04-06T03:19:34.245Z,26.80
2019-04-06T03:20:34.245Z,27.50
2019-04-06T03:21:34.221Z,27.60
2019-04-06T03:22:34.213Z,26.90
2019-04-06T03:23:49.218Z,27.60
2019-04-06T03:24:35.246Z,27.30
2019-04-06T03:25:34.191Z,26.90
2019-04-06T03:26:34.242Z,26.30
2019-04-06T03:27:34.162Z,27.40
2019-04-06T03:28:34.201Z,26.20
2019-04-06T03:29:34.180Z,27.10
2019-04-06T03:30:34.133Z,27.00
2019-04-06T03:31:34.242Z,27.10
2019-04-06T03:32:34.148Z,26.40
2019-04-06T03:33:34.412Z,26.70
2019-04-06T03:34:34.128Z,27.70
2019-04-06T03:35:34.151Z,26.60
2019-04-06T03:36:34.153Z,26.30
2019-04-06T03:37:34.057Z,26.50
2019-04-06T03:38:34.083Z,27.40
2019-04-06T03:39:34.031Z,27.30
2019-04-06T03:40:34.026Z,27.30
2019-04-06T03:41:34.092Z,27.30
2019-04-06T03:42:34.024Z,26.90
2019-04-06T03:43:34.474Z,26.60
2019-04-06T03:44:34.140Z,27.30
2019-04-06T03:45:33.963Z,27.70
2019-04-06T03:46:34.000Z,27.50
2019-04-06T03:47:34.079Z,27.30
2019-04-06T03:48:33.934Z,26.70
2019-04-06T03:49:34.051Z,27.80
2019-04-06T03:50:33.913Z,27.10
2019-04-06T03:51:33.946Z,26.60
2019-04-06T03:52:33.892Z,27.20
2019-04-06T03:53:33.900Z,27.50
2019-04-06T03:54:33.870Z,27.40
2019-04-06T03:55:33.881Z,27.60
2019-04-06T03:56:33.869Z,26.20
2019-04-06T03:57:33.825Z,27.40
2019-04-06T03:58:33.900Z,27.20
2019-04-06T03:59:33.854Z,28.10
2019-04-06T04:00:33.879Z,27.00
2019-04-06T04:01:33.841Z,27.10
2019-04-06T04:02:33.785Z,27.10
2019-04-06T04:03:33.771Z,28.20
2019-04-06T04:04:33.765Z,26.90
2019-04-06T04:05:33.930Z,27.90
2019-04-06T04:06:33.763Z,26.90
2019-04-06T04:07:33.724Z,27.50
2019-04-06T04:08:33.703Z,27.20
2019-04-06T04:09:33.712Z,27.70
2019-04-06T04:10:33.693Z,28.60
2019-04-06T04:11:33.897Z,27.60
2019-04-06T04:12:33.681Z,27.30
2019-04-06T04:13:33.693Z,27.80
2019-04-06T04:14:33.655Z,27.80
2019-04-06T04:15:33.740Z,27.90
2019-04-06T04:16:33.663Z,27.80
2019-04-06T04:17:33.867Z,27.20
2019-04-06T04:18:33.640Z,27.60
2019-04-06T04:19:33.592Z,27.80
2019-04-06T04:20:33.594Z,26.70
2019-04-06T04:21:33.571Z,28.80
2019-04-06T04:22:35.184Z,27.30
2019-04-06T04:23:33.609Z,28.30
2019-04-06T04:24:33.540Z,27.80
2019-04-06T04:25:33.542Z,27.70
2019-04-06T04:26:33.520Z,28.00
2019-04-06T04:27:33.500Z,28.10
2019-04-06T04:28:33.520Z,27.60
2019-04-06T04:29:33.480Z,28.30
2019-04-06T04:30:34.549Z,27.00
2019-04-06T04:31:34.050Z,28.00
2019-04-06T04:32:33.482Z,28.20
2019-04-06T04:33:33.457Z,27.80
2019-04-06T04:34:33.427Z,27.20
2019-04-06T04:35:33.640Z,27.90
2019-04-06T04:36:33.458Z,27.70
2019-04-06T04:37:33.395Z,27.20
2019-04-06T04:38:33.405Z,27.10
2019-04-06T04:39:33.551Z,26.90
2019-04-06T04:40:33.429Z,27.20
2019-04-06T04:41:33.349Z,27.00
2019-04-06T04:42:33.373Z,26.30
2019-04-06T04:43:33.367Z,27.60
2019-04-06T04:44:33.335Z,27.70
2019-04-06T04:45:33.463Z,27.70
2019-04-06T04:46:33.309Z,28.00
2019-04-06T04:47:33.280Z,27.70
2019-04-06T04:48:33.405Z,26.70
2019-04-06T04:49:33.258Z,27.80
2019-04-06T04:50:33.487Z,27.60
2019-04-06T04:51:33.280Z,28.60
2019-04-06T04:52:33.225Z,28.10
2019-04-06T04:53:33.216Z,26.40
2019-04-06T04:54:33.200Z,28.20
2019-04-06T04:55:33.383Z,27.70
2019-04-06T04:56:33.221Z,26.50
2019-04-06T04:57:40.142Z,27.40
2019-04-06T04:58:34.172Z,27.20
2019-04-06T04:59:33.179Z,27.20
2019-04-06T05:00:33.147Z,28.20
2019-04-06T05:01:33.140Z,26.70
2019-04-06T05:02:33.120Z,27.90
2019-04-06T05:03:33.324Z,27.00
2019-04-06T05:04:33.167Z,29.20
2019-04-06T05:05:33.156Z,26.30
2019-04-06T05:06:33.072Z,28.30
2019-04-06T05:07:33.090Z,27.30
2019-04-06T05:08:33.051Z,27.10
2019-04-06T05:09:33.115Z,27.80
2019-04-06T05:10:33.068Z,27.30
2019-04-06T05:11:33.045Z,28.10
2019-04-06T05:12:33.037Z,27.90
2019-04-06T05:13:33.039Z,28.60
2019-04-06T05:14:33.017Z,28.20
2019-04-06T05:15:32.999Z,26.40
2019-04-06T05:16:32.977Z,28.00
2019-04-06T05:17:32.961Z,29.00
2019-04-06T05:18:32.947Z,28.40
2019-04-06T05:19:32.929Z,28.40
2019-04-06T05:20:33.008Z,27.90
2019-04-06T05:21:32.975Z,29.00
2019-04-06T05:22:32.936Z,28.80
2019-04-06T05:23:32.887Z,28.60
2019-04-06T05:24:33.026Z,29.10
2019-04-06T05:25:32.899Z,28.60
2019-04-06T05:26:37.851Z,29.80
2019-04-06T05:27:33.839Z,28.50
2019-04-06T05:28:32.929Z,28.80
2019-04-06T05:29:33.347Z,29.00
2019-04-06T05:30:32.806Z,29.80
2019-04-06T05:31:32.898Z,28.00
2019-04-06T05:32:32.794Z,29.30
2019-04-06T05:33:32.777Z,28.20
2019-04-06T05:34:32.767Z,29.70
2019-04-06T05:35:32.757Z,28.40
2019-04-06T05:36:32.880Z,28.60
2019-04-06T05:37:32.747Z,28.30
2019-04-06T05:38:32.793Z,28.40
2019-04-06T05:39:32.737Z,27.90
2019-04-06T05:40:32.705Z,28.40
2019-04-06T05:41:32.698Z,29.60
2019-04-06T05:42:32.704Z,28.30
2019-04-06T05:43:32.960Z,29.30
2019-04-06T05:44:32.688Z,28.70
2019-04-06T05:45:32.660Z,28.00
2019-04-06T05:46:32.635Z,28.80
2019-04-06T05:47:32.652Z,28.90
2019-04-06T05:48:32.628Z,29.20
2019-04-06T05:49:32.671Z,29.10
2019-04-06T05:50:32.644Z,30.10
2019-04-06T05:51:32.631Z,29.10
2019-04-06T05:52:32.684Z,28.60
2019-04-06T05:53:32.612Z,29.00
2019-04-06T05:54:32.545Z,28.20
2019-04-06T05:55:32.578Z,29.40
2019-04-06T05:56:32.752Z,29.80
2019-04-06T05:57:32.819Z,29.90
2019-04-06T05:58:32.535Z,30.40
2019-04-06T05:59:32.505Z,29.00
2019-04-06T06:00:32.515Z,28.30
2019-04-06T06:01:32.507Z,29.30
2019-04-06T06:02:32.465Z,28.50
2019-04-06T06:03:32.525Z,29.70
2019-04-06T06:04:32.465Z,29.70
2019-04-06T06:05:32.434Z,29.20
2019-04-06T06:06:32.741Z,29.40
2019-04-06T06:07:32.425Z,29.00
2019-04-06T06:08:32.442Z,28.90
2019-04-06T06:09:32.451Z,28.90
2019-04-06T06:10:32.392Z,28.60
2019-04-06T06:11:32.376Z,29.20
2019-04-06T06:12:32.365Z,29.40
2019-04-06T06:13:32.381Z,28.70
2019-04-06T06:14:32.329Z,28.90
2019-04-06T06:15:32.333Z,29.00
2019-04-06T06:16:32.363Z,29.00
2019-04-06T06:17:32.352Z,29.20
2019-04-06T06:18:32.344Z,30.20
2019-04-06T06:19:32.298Z,29.60
2019-04-06T06:20:32.368Z,29.50
2019-04-06T06:21:32.265Z,28.40
2019-04-06T06:22:32.365Z,29.00
2019-04-06T06:23:32.319Z,28.40
2019-04-06T06:24:34.600Z,28.40
2019-04-06T06:25:32.205Z,29.10
2019-04-06T06:26:32.245Z,28.90
2019-04-06T06:27:32.238Z,28.40
2019-04-06T06:28:32.174Z,29.10
2019-04-06T06:29:32.264Z,29.30
2019-04-06T06:30:32.186Z,29.20
2019-04-06T06:31:32.184Z,29.00
2019-04-06T06:32:32.142Z,27.20
2019-04-06T06:33:33.014Z,28.80
2019-04-06T06:34:32.113Z,29.10
2019-04-06T06:35:32.132Z,28.70
2019-04-06T06:36:32.133Z,29.10
2019-04-06T06:37:32.105Z,29.30
2019-04-06T06:38:32.113Z,29.00
2019-04-06T06:39:32.053Z,29.40
2019-04-06T06:40:32.245Z,29.00
2019-04-06T06:41:32.056Z,29.40
2019-04-06T06:42:32.032Z,30.10
2019-04-06T06:43:32.043Z,30.60
2019-04-06T06:44:32.033Z,30.60
2019-04-06T06:45:31.989Z,29.70
2019-04-06T06:46:31.992Z,29.10
2019-04-06T06:47:32.076Z,30.40
2019-04-06T06:48:32.067Z,30.00
2019-04-06T06:49:32.047Z,29.80
2019-04-06T06:50:34.254Z,30.80
2019-04-06T06:51:31.935Z,30.70
2019-04-06T06:52:31.960Z,30.30
2019-04-06T06:53:31.912Z,29.60
2019-04-06T06:54:32.120Z,30.50
2019-04-06T06:55:31.922Z,30.60
2019-04-06T06:56:31.871Z,31.50
2019-04-06T06:57:31.953Z,30.20
2019-04-06T06:58:31.863Z,31.40
2019-04-06T06:59:32.512Z,30.70
2019-04-06T07:00:31.835Z,29.80
2019-04-06T07:01:31.822Z,29.00
2019-04-06T07:02:31.919Z,30.10
2019-04-06T07:03:31.889Z,31.20
2019-04-06T07:04:31.811Z,31.30
2019-04-06T07:05:31.813Z,31.90
2019-04-06T07:06:31.758Z,31.20
2019-04-06T07:07:31.948Z,31.60
2019-04-06T07:08:31.791Z,30.10
2019-04-06T07:09:31.997Z,30.20
2019-04-06T07:10:32.004Z,30.50
2019-04-06T07:11:31.913Z,31.40
2019-04-06T07:12:31.701Z,31.20
2019-04-06T07:13:31.714Z,31.80
2019-04-06T07:14:31.681Z,31.50
2019-04-06T07:15:31.765Z,30.40
2019-04-06T07:16:31.651Z,31.00
2019-04-06T07:17:31.702Z,31.10
2019-04-06T07:18:31.829Z,29.80
2019-04-06T07:19:31.618Z,31.40
2019-04-06T07:20:31.815Z,32.10
2019-04-06T07:21:31.591Z,31.20
2019-04-06T07:22:31.619Z,31.50
2019-04-06T07:23:31.572Z,31.40
2019-04-06T07:24:31.605Z,32.00
2019-04-06T07:25:31.590Z,31.20
2019-04-06T07:26:31.552Z,31.30
2019-04-06T07:27:31.539Z,32.00
2019-04-06T07:28:37.777Z,31.50
2019-04-06T07:29:32.510Z,31.90
2019-04-06T07:30:31.529Z,31.20
2019-04-06T07:31:31.491Z,30.80
2019-04-06T07:32:31.477Z,31.00
2019-04-06T07:33:31.528Z,31.20
2019-04-06T07:34:31.453Z,30.70
2019-04-06T07:35:31.449Z,30.70
2019-04-06T07:36:31.480Z,31.70
2019-04-06T07:37:31.436Z,32.10
2019-04-06T07:38:31.437Z,31.20
2019-04-06T07:39:31.409Z,30.70
2019-04-06T07:40:31.392Z,32.50
2019-04-06T07:41:31.409Z,32.70
2019-04-06T07:42:31.440Z,30.90
2019-04-06T07:43:31.378Z,32.50
2019-04-06T07:44:31.354Z,32.10
2019-04-06T07:45:31.330Z,33.20
2019-04-06T07:46:31.469Z,31.70
2019-04-06T07:47:31.569Z,32.30
2019-04-06T07:48:31.339Z,33.20
2019-04-06T07:49:31.312Z,32.00
2019-04-06T07:50:31.358Z,31.90
2019-04-06T07:51:31.380Z,31.20
2019-04-06T07:52:32.279Z,31.70
2019-04-06T07:53:31.240Z,32.40
2019-04-06T07:54:31.493Z,33.20
2019-04-06T07:55:31.219Z,32.50
2019-04-06T07:56:31.377Z,31.90
2019-04-06T07:57:31.230Z,32.90
2019-04-06T07:58:31.319Z,32.20
2019-04-06T07:59:31.343Z,31.10
2019-04-06T08:00:31.197Z,31.40
2019-04-06T08:01:31.295Z,31.90
2019-04-06T08:02:31.169Z,31.90
2019-04-06T08:03:31.319Z,32.70
2019-04-06T08:04:31.264Z,32.10
2019-04-06T08:05:31.119Z,33.00
2019-04-06T08:06:31.129Z,33.40
2019-04-06T08:07:31.205Z,31.50
2019-04-06T08:08:31.220Z,31.50
2019-04-06T08:09:31.162Z,32.10
2019-04-06T08:10:31.136Z,32.10
2019-04-06T08:11:31.048Z,31.90
2019-04-06T08:12:31.111Z,32.90
2019-04-06T08:13:31.025Z,31.60
2019-04-06T08:14:31.053Z,32.00
2019-04-06T08:15:31.120Z,32.10
2019-04-06T08:16:30.990Z,32.50
2019-04-06T08:17:31.002Z,31.70
2019-04-06T08:18:31.013Z,33.50
2019-04-06T08:19:31.084Z,33.70
2019-04-06T08:20:30.996Z,31.80
2019-04-06T08:21:31.186Z,32.60
2019-04-06T08:22:31.091Z,32.90
2019-04-06T08:23:30.919Z,32.40
2019-04-06T08:24:30.909Z,32.20
2019-04-06T08:25:30.936Z,32.20
2019-04-06T08:26:30.930Z,33.40
2019-04-06T08:27:30.879Z,33.00
2019-04-06T08:28:30.868Z,31.90
2019-04-06T08:29:30.859Z,32.40
2019-04-06T08:30:31.298Z,32.20
2019-04-06T08:31:30.929Z,31.90
2019-04-06T08:32:31.019Z,32.40
2019-04-06T08:33:30.928Z,32.60
2019-04-06T08:34:30.799Z,31.80
2019-04-06T08:35:30.799Z,31.90
2019-04-06T08:36:30.861Z,31.10
2019-04-06T08:37:31.025Z,31.00
2019-04-06T08:38:30.778Z,29.80
2019-04-06T08:39:30.761Z,31.00
2019-04-06T08:40:31.022Z,33.00
2019-04-06T08:41:30.764Z,30.80
2019-04-06T08:42:30.831Z,31.30
2019-04-06T08:43:30.900Z,32.40
2019-04-06T08:44:30.699Z,31.40
2019-04-06T08:45:30.770Z,32.30
2019-04-06T08:46:30.670Z,32.10
2019-04-06T08:47:30.652Z,31.50
2019-04-06T08:48:30.673Z,30.90
2019-04-06T08:49:30.680Z,31.80
2019-04-06T08:50:30.698Z,30.50
2019-04-06T08:51:30.784Z,31.60
2019-04-06T08:52:30.815Z,30.90
2019-04-06T08:53:30.700Z,32.20
2019-04-06T08:54:30.607Z,29.90
2019-04-06T08:55:30.617Z,30.60
2019-04-06T08:56:30.738Z,30.40
2019-04-06T08:57:30.574Z,30.50
2019-04-06T08:58:30.622Z,30.00
2019-04-06T08:59:30.579Z,31.10
2019-04-06T09:00:30.569Z,31.10
2019-04-06T09:01:30.507Z,29.90
2019-04-06T09:02:30.729Z,30.10
2019-04-06T09:03:30.474Z,30.20
2019-04-06T09:04:30.461Z,31.20
2019-04-06T09:05:30.495Z,30.90
2019-04-06T09:06:30.872Z,30.80
2019-04-06T09:07:30.431Z,31.00
2019-04-06T09:08:30.418Z,31.10
2019-04-06T09:09:30.454Z,31.60
2019-04-06T09:10:30.401Z,30.70
2019-04-06T09:11:30.382Z,30.70
2019-04-06T09:12:30.398Z,31.50
2019-04-06T09:13:30.389Z,28.70
2019-04-06T09:14:30.554Z,30.50
2019-04-06T09:15:30.361Z,29.30
2019-04-06T09:16:30.614Z,28.70
2019-04-06T09:17:30.351Z,29.20
2019-04-06T09:18:30.390Z,28.80
2019-04-06T09:19:30.350Z,28.70
2019-04-06T09:20:30.384Z,28.00
2019-04-06T09:21:30.301Z,30.50
2019-04-06T09:22:30.924Z,29.30
2019-04-06T09:23:30.277Z,29.00
2019-04-06T09:24:30.243Z,29.90
2019-04-06T09:25:30.293Z,30.20
2019-04-06T09:26:30.219Z,29.10
2019-04-06T09:27:30.211Z,30.10
2019-04-06T09:28:30.258Z,28.40
2019-04-06T09:29:30.239Z,30.00
2019-04-06T09:30:30.227Z,29.00
2019-04-06T09:31:30.296Z,28.30
2019-04-06T09:32:30.201Z,28.00
2019-04-06T09:33:30.141Z,28.00
2019-04-06T09:34:31.171Z,27.20
2019-04-06T09:35:30.181Z,27.50
2019-04-06T09:36:30.135Z,26.80
2019-04-06T09:37:30.114Z,26.50
2019-04-06T09:38:30.113Z,26.60
2019-04-06T09:39:30.079Z,26.10
2019-04-06T09:40:30.343Z,25.70
2019-04-06T09:41:30.460Z,25.00
2019-04-06T09:42:30.065Z,26.30
2019-04-06T09:43:30.045Z,25.50
2019-04-06T09:44:30.022Z,25.60
2019-04-06T09:45:30.044Z,25.50
2019-04-06T09:46:30.106Z,25.90
2019-04-06T09:47:30.330Z,26.50
2019-04-06T09:48:29.982Z,25.00
2019-04-06T09:49:30.191Z,26.10
2019-04-06T09:50:30.024Z,25.60
2019-04-06T09:51:30.162Z,25.00
2019-04-06T09:52:30.094Z,25.90
2019-04-06T09:53:29.940Z,26.50
2019-04-06T09:54:30.144Z,26.10
2019-04-06T09:55:29.923Z,25.60
2019-04-06T09:56:29.889Z,25.10
2019-04-06T09:57:29.915Z,25.40
2019-04-06T09:58:29.986Z,25.10
2019-04-06T09:59:35.812Z,25.20
2019-04-06T10:00:31.044Z,25.20
2019-04-06T10:01:37.985Z,24.10
2019-04-06T10:02:31.061Z,25.80
2019-04-06T10:03:29.811Z,25.40
2019-04-06T10:04:29.813Z,24.70
2019-04-06T10:05:29.813Z,23.30
2019-04-06T10:06:32.154Z,23.00
2019-04-06T10:07:29.782Z,23.30
2019-04-06T10:08:29.794Z,22.00
2019-04-06T10:09:29.835Z,22.70
2019-04-06T10:10:29.737Z,20.90
2019-04-06T10:11:29.747Z,21.90
2019-04-06T10:12:29.975Z,21.80
2019-04-06T10:13:29.796Z,21.70
2019-04-06T10:14:29.707Z,21.50
2019-04-06T10:15:29.679Z,19.30
2019-04-06T10:16:29.663Z,19.70
2019-04-06T10:17:29.681Z,19.90
2019-04-06T10:18:29.722Z,20.80
2019-04-06T10:19:29.671Z,19.90
2019-04-06T10:20:29.733Z,19.80
2019-04-06T10:21:30.781Z,19.90
2019-04-06T10:22:29.684Z,19.40
2019-04-06T10:23:29.583Z,19.20
2019-04-06T10:24:29.675Z,19.20
2019-04-06T10:25:29.897Z,19.90
2019-04-06T10:26:29.605Z,19.30
2019-04-06T10:27:29.561Z,20.30
2019-04-06T10:28:29.851Z,19.10
2019-04-06T10:29:29.551Z,18.50
2019-04-06T10:30:29.504Z,18.40
2019-04-06T10:31:29.493Z,19.20
2019-04-06T10:32:29.482Z,18.10
2019-04-06T10:33:29.516Z,17.90
2019-04-06T10:34:29.499Z,17.60
2019-04-06T10:35:29.449Z,17.50
2019-04-06T10:36:31.422Z,17.80
2019-04-06T10:37:29.428Z,17.90
2019-04-06T10:38:29.446Z,19.00
2019-04-06T10:39:29.628Z,19.10
2019-04-06T10:40:30.030Z,19.40
2019-04-06T10:41:29.419Z,18.10
2019-04-06T10:42:29.625Z,17.80
2019-04-06T10:43:29.407Z,17.70
2019-04-06T10:44:29.394Z,18.10
2019-04-06T10:45:29.350Z,18.30
2019-04-06T10:46:29.381Z,18.00
2019-04-06T10:47:29.315Z,18.00
2019-04-06T10:48:29.315Z,18.30
2019-04-06T10:49:29.335Z,18.60
2019-04-06T10:50:29.276Z,18.20
2019-04-06T10:51:29.416Z,18.70
2019-04-06T10:52:29.299Z,19.30
2019-04-06T10:53:29.451Z,18.60
2019-04-06T10:54:29.255Z,19.30
2019-04-06T10:55:29.285Z,19.40
2019-04-06T10:56:29.215Z,19.90
2019-04-06T10:57:29.213Z,19.40
2019-04-06T10:58:29.273Z,19.60
2019-04-06T10:59:29.187Z,18.90
2019-04-06T11:00:29.175Z,18.70
2019-04-06T11:01:29.164Z,19.10
2019-04-06T11:02:29.165Z,19.00
2019-04-06T11:03:29.147Z,18.10
2019-04-06T11:04:29.129Z,18.60
2019-04-06T11:05:29.126Z,19.20
2019-04-06T11:06:29.105Z,18.20
2019-04-06T11:07:29.150Z,18.70
2019-04-06T11:08:29.121Z,18.00
2019-04-06T11:09:29.298Z,17.70
2019-04-06T11:10:29.056Z,20.60
2019-04-06T11:11:29.166Z,20.40
2019-04-06T11:12:29.080Z,20.50
2019-04-06T11:13:29.037Z,19.40
2019-04-06T11:14:29.025Z,20.10
2019-04-06T11:15:29.362Z,20.20
2019-04-06T11:16:29.292Z,19.90
2019-04-06T11:17:29.143Z,19.50
2019-04-06T11:18:28.989Z,19.70
2019-04-06T11:19:28.995Z,19.90
2019-04-06T11:20:28.963Z,19.10
2019-04-06T11:21:28.959Z,19.10
2019-04-06T11:22:28.998Z,19.50
2019-04-06T11:23:29.078Z,19.00
2019-04-06T11:24:28.909Z,20.40
2019-04-06T11:25:28.915Z,20.60
2019-04-06T11:26:28.907Z,20.50
2019-04-06T11:27:28.927Z,20.60
2019-04-06T11:28:28.878Z,20.80
2019-04-06T11:29:28.855Z,20.40
2019-04-06T11:30:29.080Z,20.20
2019-04-06T11:31:28.852Z,19.80
2019-04-06T11:32:28.862Z,22.40
2019-04-06T11:33:28.994Z,22.60
2019-04-06T11:34:28.806Z,21.30
2019-04-06T11:35:28.796Z,20.50
2019-04-06T11:36:28.777Z,21.20
2019-04-06T11:37:28.901Z,20.30
2019-04-06T11:38:28.831Z,20.20
2019-04-06T11:39:28.767Z,20.20
2019-04-06T11:40:28.746Z,20.40
2019-04-06T11:41:28.791Z,20.20
2019-04-06T11:42:28.778Z,20.80
2019-04-06T11:43:28.726Z,20.90
2019-04-06T11:44:28.844Z,21.80
2019-04-06T11:45:28.720Z,20.10
2019-04-06T11:46:28.797Z,21.00
2019-04-06T11:47:28.796Z,22.00
2019-04-06T11:48:28.645Z,22.60
2019-04-06T11:49:28.647Z,22.60
2019-04-06T11:50:28.676Z,21.20
2019-04-06T11:51:28.803Z,20.80
2019-04-06T11:52:29.415Z,21.50
2019-04-06T11:53:28.583Z,21.80
2019-04-06T11:54:28.587Z,23.20
2019-04-06T11:55:28.600Z,21.30
2019-04-06T11:56:28.547Z,22.40
2019-04-06T11:57:28.594Z,30.30
2019-04-06T11:58:28.527Z,22.60
2019-04-06T11:59:28.547Z,20.20
2019-04-06T12:00:28.538Z,21.20
2019-04-06T12:01:28.854Z,21.10
2019-04-06T12:02:28.501Z,25.50
2019-04-06T12:03:28.489Z,21.10
2019-04-06T12:04:28.467Z,19.40
2019-04-06T12:05:28.460Z,19.90
2019-04-06T12:06:28.478Z,20.10
2019-04-06T12:07:28.460Z,21.30
2019-04-06T12:08:28.417Z,26.30
2019-04-06T12:09:28.399Z,21.90
2019-04-06T12:10:28.412Z,20.60
2019-04-06T12:11:28.381Z,20.90
2019-04-06T12:12:28.407Z,21.90
2019-04-06T12:13:28.398Z,30.30
2019-04-06T12:14:28.360Z,26.10
2019-04-06T12:15:28.339Z,22.10
2019-04-06T12:16:28.332Z,21.30
2019-04-06T12:17:28.751Z,21.30
2019-04-06T12:18:28.336Z,23.30
2019-04-06T12:19:28.451Z,21.50
2019-04-06T12:20:28.507Z,21.70
2019-04-06T12:21:28.296Z,20.30
2019-04-06T12:22:28.432Z,21.10
2019-04-06T12:23:28.435Z,22.10
2019-04-06T12:24:28.242Z,21.20
2019-04-06T12:25:28.228Z,20.20
2019-04-06T12:26:28.229Z,21.00
2019-04-06T12:27:28.548Z,20.60
2019-04-06T12:28:28.191Z,19.80
2019-04-06T12:29:28.584Z,21.70
2019-04-06T12:30:37.297Z,20.20
2019-04-06T12:31:29.169Z,19.30
2019-04-06T12:32:28.228Z,19.10
2019-04-06T12:33:28.496Z,19.90
2019-04-06T12:34:28.152Z,18.80
2019-04-06T12:35:28.327Z,19.30
2019-04-06T12:36:28.446Z,19.40
2019-04-06T12:37:28.313Z,19.70
2019-04-06T12:38:28.216Z,19.00
2019-04-06T12:39:28.085Z,18.80
2019-04-06T12:40:28.070Z,18.20
2019-04-06T12:41:28.146Z,19.00
2019-04-06T12:42:28.514Z,19.00
2019-04-06T12:43:30.803Z,18.70
2019-04-06T12:44:28.030Z,19.70
2019-04-06T12:45:28.342Z,18.90
2019-04-06T12:46:28.125Z,19.30
2019-04-06T12:47:28.053Z,18.60
2019-04-06T12:48:27.993Z,18.00
2019-04-06T12:49:28.011Z,18.10
2019-04-06T12:50:28.047Z,18.00
2019-04-06T12:51:27.958Z,18.20
2019-04-06T12:52:28.049Z,17.70